Time;durP1;ratioP1;P1;durP2;ratioP2;P2;SDS_P1;SDS_P2;PMS_P1;PMS_P2;Temp;Humidity;BMP_temperature;BMP_pressure;BME280_temperature;BME280_humidity;BME280_pressure;Samples;Min_cycle;Max_cycle;Signal;HPM_P1;HPM_P2
2021/09/09 00:00:16;;;;;;;3.40;2.03;;;29.70;58.50;;;;;;5043963;28;20144;-43
2021/09/09 00:02:43;;;;;;;3.30;2.65;;;29.60;58.70;;;;;;5038171;28;20073;-42
2021/09/09 00:05:15;;;;;;;3.90;3.35;;;29.60;58.80;;;;;;5039339;28;20513;-45
2021/09/09 00:07:43;;;;;;;2.97;2.38;;;29.60;59.20;;;;;;5042511;28;20052;-42
2021/09/09 00:10:11;;;;;;;3.80;2.00;;;29.50;59.30;;;;;;5040722;28;20079;-49
2021/09/09 00:12:42;;;;;;;10.93;2.70;;;29.50;59.30;;;;;;5047488;28;20080;-45
2021/09/09 00:15:10;;;;;;;3.10;2.72;;;29.40;59.40;;;;;;5036929;28;20040;-42
2021/09/09 00:17:40;;;;;;;5.70;3.03;;;29.40;59.50;;;;;;5044437;28;20059;-43
2021/09/09 00:20:09;;;;;;;4.88;2.03;;;29.30;59.40;;;;;;5044438;28;20041;-45
2021/09/09 00:22:36;;;;;;;2.53;2.35;;;29.30;59.50;;;;;;5041269;28;20123;-41
2021/09/09 00:25:05;;;;;;;2.40;1.90;;;29.30;59.50;;;;;;5045422;28;20103;-42
2021/09/09 00:27:34;;;;;;;5.63;3.00;;;29.20;59.50;;;;;;5039935;28;20036;-42
2021/09/09 00:30:04;;;;;;;5.03;2.45;;;29.20;59.60;;;;;;5045612;28;20136;-46
2021/09/09 00:32:31;;;;;;;3.13;2.67;;;29.20;59.70;;;;;;5034971;28;20114;-43
2021/09/09 00:35:00;;;;;;;2.67;2.30;;;29.20;59.80;;;;;;5048882;28;20036;-43
2021/09/09 00:37:28;;;;;;;4.47;2.10;;;29.10;59.80;;;;;;5045551;28;20474;-46
2021/09/09 00:39:55;;;;;;;5.35;3.13;;;29.10;59.90;;;;;;5054161;28;20055;-45
2021/09/09 00:42:22;;;;;;;2.25;1.80;;;29.10;59.90;;;;;;5046207;28;20048;-48
2021/09/09 00:44:50;;;;;;;2.40;2.20;;;29.00;59.90;;;;;;5040305;28;20521;-45
2021/09/09 00:47:18;;;;;;;6.47;2.80;;;29.00;60.00;;;;;;5047367;28;20033;-47
2021/09/09 00:49:45;;;;;;;3.95;2.53;;;29.00;60.10;;;;;;5046440;28;20037;-43
2021/09/09 00:52:14;;;;;;;3.42;2.78;;;28.90;60.20;;;;;;5043377;28;20056;-43
2021/09/09 00:54:42;;;;;;;4.00;1.83;;;28.90;60.20;;;;;;5050204;28;20421;-43
2021/09/09 00:57:09;;;;;;;1.98;1.88;;;28.90;60.30;;;;;;5044193;28;20819;-45
2021/09/09 00:59:37;;;;;;;2.45;2.22;;;28.90;60.40;;;;;;5048523;28;20073;-43
2021/09/09 01:02:04;;;;;;;5.40;2.40;;;28.80;60.30;;;;;;5043656;28;20572;-45
2021/09/09 01:04:33;;;;;;;2.75;2.15;;;28.80;60.30;;;;;;5045149;28;20517;-43
2021/09/09 01:07:01;;;;;;;2.85;2.38;;;28.80;60.40;;;;;;5031335;28;20041;-43
2021/09/09 01:09:28;;;;;;;4.47;2.83;;;28.80;60.50;;;;;;5041302;28;20045;-43
2021/09/09 01:11:56;;;;;;;2.38;2.00;;;28.70;60.60;;;;;;5047543;28;20123;-43
2021/09/09 01:14:24;;;;;;;2.65;2.08;;;28.70;60.70;;;;;;5041098;28;20041;-43
2021/09/09 01:16:51;;;;;;;3.55;2.22;;;28.70;60.90;;;;;;5056857;28;20115;-49
2021/09/09 01:19:19;;;;;;;3.08;2.22;;;28.70;60.70;;;;;;5048324;28;20095;-43
2021/09/09 01:21:47;;;;;;;4.43;2.05;;;28.70;60.70;;;;;;5041697;28;20045;-44
2021/09/09 01:24:16;;;;;;;3.17;2.90;;;28.60;60.60;;;;;;5045530;28;20144;-47
2021/09/09 01:26:53;;;;;;;2.22;2.03;;;28.60;60.70;;;;;;5046431;28;20041;-45
2021/09/09 01:29:21;;;;;;;3.22;2.83;;;28.60;60.70;;;;;;5048231;28;20099;-44
2021/09/09 01:31:49;;;;;;;1.83;1.70;;;28.60;60.80;;;;;;5045526;28;20049;-44
2021/09/09 01:34:16;;;;;;;6.85;1.73;;;28.60;60.80;;;;;;5043011;28;20037;-49
2021/09/09 01:36:45;;;;;;;3.70;2.05;;;28.50;60.70;;;;;;5037356;28;20120;-43
2021/09/09 01:39:12;;;;;;;3.05;2.55;;;28.50;60.70;;;;;;5039290;28;20068;-45
2021/09/09 01:41:41;;;;;;;2.10;2.00;;;28.50;60.70;;;;;;5048069;28;20432;-46
2021/09/09 01:44:08;;;;;;;2.22;2.00;;;28.50;60.70;;;;;;5043075;28;20045;-46
2021/09/09 01:46:36;;;;;;;4.20;2.40;;;28.40;60.70;;;;;;5044912;28;20049;-45
2021/09/09 01:49:03;;;;;;;4.30;2.90;;;28.40;60.70;;;;;;5047130;28;20033;-43
2021/09/09 01:51:30;;;;;;;4.80;2.42;;;28.40;60.80;;;;;;5042460;28;20123;-42
2021/09/09 01:53:57;;;;;;;4.97;3.17;;;28.40;60.80;;;;;;5047481;28;20045;-44
2021/09/09 01:56:24;;;;;;;3.72;3.20;;;28.40;60.80;;;;;;5041838;28;20038;-45
2021/09/09 01:58:53;;;;;;;3.53;2.65;;;28.40;60.90;;;;;;5046015;28;20520;-42
2021/09/09 02:01:20;;;;;;;3.38;3.00;;;28.30;61.00;;;;;;5047627;28;20394;-43
2021/09/09 02:03:47;;;;;;;3.40;3.17;;;28.30;60.90;;;;;;5040795;28;20051;-43
2021/09/09 02:06:14;;;;;;;4.55;4.13;;;28.30;61.00;;;;;;5047191;28;20493;-43
2021/09/09 02:08:41;;;;;;;7.53;3.00;;;28.30;61.10;;;;;;5038873;28;20052;-44
2021/09/09 02:11:09;;;;;;;5.18;2.33;;;28.30;60.90;;;;;;5047042;28;20033;-46
2021/09/09 02:13:36;;;;;;;5.07;3.03;;;28.30;61.30;;;;;;5043824;28;20124;-42
2021/09/09 02:16:05;;;;;;;3.38;3.10;;;28.20;61.10;;;;;;5045824;28;20036;-45
2021/09/09 02:18:32;;;;;;;3.78;2.85;;;28.30;61.30;;;;;;5048308;28;20159;-46
2021/09/09 02:20:59;;;;;;;5.28;3.25;;;28.20;61.40;;;;;;5038887;28;20041;-44
2021/09/09 02:23:27;;;;;;;3.88;3.38;;;28.30;61.30;;;;;;5046839;28;20049;-46
2021/09/09 02:25:54;;;;;;;3.25;3.05;;;28.20;61.30;;;;;;5043712;28;20037;-44
2021/09/09 02:28:21;;;;;;;3.33;2.95;;;28.20;61.30;;;;;;5040061;28;20398;-43
2021/09/09 02:30:48;;;;;;;4.05;3.75;;;28.20;61.30;;;;;;5048706;28;20044;-43
2021/09/09 02:33:17;;;;;;;8.40;3.85;;;28.20;61.40;;;;;;5037383;28;20631;-50
2021/09/09 02:35:44;;;;;;;4.30;3.90;;;28.20;61.40;;;;;;5051913;28;20162;-46
2021/09/09 02:38:11;;;;;;;5.53;3.72;;;28.20;61.30;;;;;;5040385;28;20505;-42
2021/09/09 02:40:38;;;;;;;5.43;3.33;;;28.20;61.40;;;;;;5047138;28;20063;-46
2021/09/09 02:43:05;;;;;;;4.60;3.28;;;28.10;61.20;;;;;;5047732;28;20040;-47
2021/09/09 02:45:33;;;;;;;3.60;3.28;;;28.10;61.20;;;;;;5040158;28;20037;-48
2021/09/09 02:48:02;;;;;;;3.97;3.42;;;28.10;61.20;;;;;;5046279;28;20049;-45
2021/09/09 02:50:31;;;;;;;7.45;3.85;;;28.10;61.30;;;;;;5038953;28;20047;-43
2021/09/09 02:52:58;;;;;;;3.67;3.33;;;28.10;61.20;;;;;;5045087;28;20575;-43
2021/09/09 02:55:25;;;;;;;4.32;4.10;;;28.10;61.20;;;;;;5032855;28;20132;-45
2021/09/09 02:57:52;;;;;;;3.67;3.00;;;28.10;61.20;;;;;;5041787;28;20120;-45
2021/09/09 03:00:20;;;;;;;7.35;3.42;;;28.10;61.30;;;;;;5045445;28;20048;-43
2021/09/09 03:02:47;;;;;;;5.68;2.75;;;28.10;61.30;;;;;;5037821;28;20042;-47
2021/09/09 03:05:14;;;;;;;5.78;3.20;;;28.10;61.30;;;;;;5046145;28;20047;-50
2021/09/09 03:07:42;;;;;;;3.92;3.45;;;28.00;61.30;;;;;;5043487;28;20136;-45
2021/09/09 03:10:11;;;;;;;6.82;3.20;;;28.00;61.20;;;;;;5040380;28;20047;-44
2021/09/09 03:12:38;;;;;;;4.75;4.15;;;28.00;61.20;;;;;;5046098;28;20132;-48
2021/09/09 03:15:06;;;;;;;4.70;4.30;;;28.00;61.20;;;;;;5036839;28;20910;-45
2021/09/09 03:17:33;;;;;;;5.63;3.83;;;28.00;61.30;;;;;;5044457;28;20129;-45
2021/09/09 03:20:01;;;;;;;7.85;4.45;;;28.00;61.30;;;;;;5041603;28;20052;-47
2021/09/09 03:22:28;;;;;;;4.80;4.28;;;28.00;61.30;;;;;;5042786;28;20037;-47
2021/09/09 03:24:56;;;;;;;6.03;4.43;;;28.00;61.40;;;;;;5048172;28;20421;-45
2021/09/09 03:27:23;;;;;;;4.43;3.47;;;28.00;61.40;;;;;;5042586;28;20081;-46
2021/09/09 03:29:50;;;;;;;5.35;3.95;;;27.90;61.30;;;;;;5045494;28;20045;-47
2021/09/09 03:32:17;;;;;;;9.98;4.30;;;27.90;61.40;;;;;;5039043;28;20049;-44
2021/09/09 03:34:44;;;;;;;5.20;4.00;;;27.90;61.40;;;;;;5046991;28;20052;-47
2021/09/09 03:37:11;;;;;;;5.25;4.68;;;27.90;61.40;;;;;;5045831;28;20132;-44
2021/09/09 03:39:38;;;;;;;6.40;5.55;;;27.90;61.40;;;;;;5041390;28;20140;-44
2021/09/09 03:42:07;;;;;;;6.30;4.47;;;27.90;61.40;;;;;;5045237;28;20048;-43
2021/09/09 03:44:34;;;;;;;7.20;3.90;;;27.90;61.50;;;;;;5044295;28;20041;-42
2021/09/09 03:47:01;;;;;;;4.20;3.60;;;27.90;61.60;;;;;;5044453;28;20033;-43
2021/09/09 03:49:28;;;;;;;4.30;3.90;;;27.90;61.70;;;;;;5045472;28;20469;-48
2021/09/09 03:51:56;;;;;;;4.72;4.32;;;27.90;61.70;;;;;;5039709;28;20570;-45
2021/09/09 03:54:23;;;;;;;5.05;3.78;;;27.80;61.60;;;;;;5042384;28;20143;-49
2021/09/09 03:56:50;;;;;;;4.07;3.63;;;27.90;61.70;;;;;;5038779;28;20141;-47
2021/09/09 03:59:18;;;;;;;4.03;3.63;;;27.80;61.60;;;;;;5044631;28;20044;-50
2021/09/09 04:01:45;;;;;;;7.05;4.03;;;27.80;61.60;;;;;;5043170;28;20053;-45
2021/09/09 04:04:12;;;;;;;4.68;4.38;;;27.80;62.10;;;;;;5039784;28;20643;-47
2021/09/09 04:06:39;;;;;;;5.05;4.47;;;27.80;61.50;;;;;;5046918;28;20083;-48
2021/09/09 04:09:06;;;;;;;6.35;4.47;;;27.80;61.50;;;;;;5036725;28;20119;-45
2021/09/09 04:11:33;;;;;;;4.90;3.58;;;27.70;61.50;;;;;;5044515;28;20043;-48
2021/09/09 04:14:00;;;;;;;5.13;4.53;;;27.80;61.50;;;;;;5039442;28;20033;-46
2021/09/09 04:16:28;;;;;;;6.40;3.90;;;27.70;61.50;;;;;;5041726;28;20064;-44
2021/09/09 04:18:55;;;;;;;4.22;3.92;;;27.70;61.50;;;;;;5047380;28;20037;-48
2021/09/09 04:21:22;;;;;;;7.75;4.95;;;27.70;61.50;;;;;;5038037;28;20229;-44
2021/09/09 04:23:49;;;;;;;8.13;4.57;;;27.70;61.60;;;;;;5044961;28;20041;-49
2021/09/09 04:26:16;;;;;;;4.90;4.55;;;27.70;61.60;;;;;;5039199;28;20458;-45
2021/09/09 04:28:43;;;;;;;4.57;4.25;;;27.70;61.60;;;;;;5043059;28;20041;-44
2021/09/09 04:31:11;;;;;;;6.00;4.65;;;27.70;61.60;;;;;;5045413;28;20048;-45
2021/09/09 04:33:39;;;;;;;5.97;3.88;;;27.70;61.60;;;;;;5038504;28;20044;-42
2021/09/09 04:36:06;;;;;;;5.20;4.90;;;27.70;61.50;;;;;;5044828;28;20074;-49
2021/09/09 04:38:40;;;;;;;8.07;4.22;;;27.60;61.40;;;;;;5036322;28;20053;-43
2021/09/09 04:41:07;;;;;;;9.50;5.35;;;27.60;61.40;;;;;;5044974;28;20095;-45
2021/09/09 04:43:35;;;;;;;5.75;5.20;;;27.60;61.50;;;;;;5042983;28;20045;-49
2021/09/09 04:46:03;;;;;;;5.38;4.25;;;27.60;61.50;;;;;;5038760;28;20045;-46
2021/09/09 04:48:30;;;;;;;6.65;5.70;;;27.60;61.50;;;;;;5045108;28;20035;-48
2021/09/09 04:50:59;;;;;;;5.85;5.25;;;27.60;61.40;;;;;;5042527;28;20136;-44
2021/09/09 04:53:26;;;;;;;6.10;5.57;;;27.50;61.30;;;;;;5043290;28;20389;-47
2021/09/09 04:55:54;;;;;;;8.95;5.65;;;27.60;61.40;;;;;;5042339;28;20039;-44
2021/09/09 04:58:21;;;;;;;8.25;6.15;;;27.50;61.30;;;;;;5040452;28;20040;-43
2021/09/09 05:00:48;;;;;;;5.72;5.18;;;27.50;61.20;;;;;;5046189;28;20123;-45
2021/09/09 05:03:15;;;;;;;6.07;5.55;;;27.50;61.20;;;;;;5036458;28;20041;-49
2021/09/09 05:05:42;;;;;;;8.05;4.85;;;27.50;61.20;;;;;;5042545;28;20056;-43
2021/09/09 05:08:11;;;;;;;8.85;6.13;;;27.50;61.30;;;;;;5039214;28;20580;-44
2021/09/09 05:10:38;;;;;;;7.25;5.18;;;27.50;61.30;;;;;;5042225;28;20114;-44
2021/09/09 05:13:06;;;;;;;6.35;5.72;;;27.50;61.30;;;;;;5031524;28;20048;-42
2021/09/09 05:15:33;;;;;;;8.00;5.70;;;27.40;61.20;;;;;;5039256;28;20045;-45
2021/09/09 05:18:00;;;;;;;7.57;5.30;;;27.40;61.10;;;;;;5042696;28;20502;-44
2021/09/09 05:20:27;;;;;;;6.53;6.00;;;27.40;61.10;;;;;;5044112;28;20029;-45
2021/09/09 05:22:54;;;;;;;7.45;5.97;;;27.40;61.10;;;;;;5039438;28;20403;-44
2021/09/09 05:25:22;;;;;;;8.43;6.28;;;27.40;61.00;;;;;;5044844;28;20105;-43
2021/09/09 05:27:49;;;;;;;11.80;6.07;;;27.40;61.00;;;;;;5051277;28;20133;-43
2021/09/09 05:30:16;;;;;;;5.97;5.50;;;27.40;61.00;;;;;;5043523;28;20032;-47
2021/09/09 05:32:43;;;;;;;5.47;4.97;;;27.30;60.90;;;;;;5045447;28;20072;-44
2021/09/09 05:35:11;;;;;;;7.68;6.47;;;27.40;61.00;;;;;;5049264;28;20044;-44
2021/09/09 05:37:38;;;;;;;6.97;5.50;;;27.30;61.00;;;;;;5046326;28;20036;-46
2021/09/09 05:40:08;;;;;;;16.23;5.85;;;27.30;61.10;;;;;;5049334;28;20053;-43
2021/09/09 05:42:36;;;;;;;6.80;6.20;;;27.30;61.10;;;;;;5049171;28;20080;-45
2021/09/09 05:45:04;;;;;;;8.70;6.35;;;27.30;61.20;;;;;;5044712;28;20086;-44
2021/09/09 05:47:31;;;;;;;7.18;6.00;;;27.30;61.20;;;;;;5047835;28;20071;-45
2021/09/09 05:49:58;;;;;;;6.03;5.53;;;27.30;61.20;;;;;;5047867;28;20459;-45
2021/09/09 05:52:25;;;;;;;7.43;6.00;;;27.30;61.80;;;;;;5046409;28;20041;-44
2021/09/09 05:54:52;;;;;;;7.25;6.25;;;27.30;61.30;;;;;;5049197;28;20568;-43
2021/09/09 05:57:19;;;;;;;9.38;5.60;;;27.30;61.20;;;;;;5041265;28;20037;-45
2021/09/09 05:59:48;;;;;;;7.70;6.93;;;27.30;61.20;;;;;;5045934;28;20047;-48
2021/09/09 06:02:19;;;;;;;7.50;6.60;;;27.30;61.20;;;;;;5041288;28;20038;-43
2021/09/09 06:04:48;;;;;;;9.20;7.35;;;27.20;61.10;;;;;;5046423;28;20037;-53
2021/09/09 06:07:15;;;;;;;8.55;6.30;;;27.20;61.20;;;;;;5047449;28;20520;-43
2021/09/09 06:09:42;;;;;;;7.88;6.85;;;27.20;61.30;;;;;;5040291;28;20447;-45
2021/09/09 06:12:10;;;;;;;9.13;7.10;;;27.20;61.30;;;;;;5047277;28;20076;-44
2021/09/09 06:14:37;;;;;;;7.97;6.90;;;27.20;61.30;;;;;;5041374;28;20047;-45
2021/09/09 06:17:07;;;;;;;8.73;7.60;;;27.20;61.30;;;;;;5047875;28;20049;-42
2021/09/09 06:19:34;;;;;;;8.60;7.32;;;27.20;61.30;;;;;;5048064;28;20053;-44
2021/09/09 06:22:01;;;;;;;9.57;7.65;;;27.20;61.30;;;;;;5047362;28;20053;-43
2021/09/09 06:24:28;;;;;;;7.75;7.00;;;27.20;61.30;;;;;;5047874;28;20048;-45
2021/09/09 06:26:55;;;;;;;9.30;7.57;;;27.20;61.30;;;;;;5033069;28;20112;-41
2021/09/09 06:29:22;;;;;;;9.45;6.32;;;27.20;61.30;;;;;;5046973;28;20092;-44
2021/09/09 06:31:49;;;;;;;7.45;6.70;;;27.20;61.30;;;;;;5044423;28;20065;-42
2021/09/09 06:34:18;;;;;;;10.35;7.15;;;27.20;61.30;;;;;;5042136;28;20404;-45
2021/09/09 06:36:45;;;;;;;7.85;6.90;;;27.20;61.40;;;;;;5047504;28;20424;-48
2021/09/09 06:39:14;;;;;;;7.40;6.63;;;27.20;61.30;;;;;;5049455;28;20056;-47
2021/09/09 06:41:44;;;;;;;7.55;6.70;;;27.20;61.30;;;;;;5045620;28;20410;-43
2021/09/09 06:44:13;;;;;;;9.50;6.68;;;27.20;61.30;;;;;;5048026;28;20041;-45
2021/09/09 06:46:40;;;;;;;10.38;5.15;;;27.20;61.20;;;;;;5045786;28;20076;-42
2021/09/09 06:49:08;;;;;;;5.68;5.10;;;27.20;61.50;;;;;;5046123;28;20037;-45
2021/09/09 06:51:37;;;;;;;5.05;4.68;;;27.30;61.70;;;;;;5040439;28;20090;-50
2021/09/09 06:54:05;;;;;;;7.35;3.85;;;27.40;61.60;;;;;;5038302;28;20510;-42
2021/09/09 06:56:32;;;;;;;5.82;4.15;;;27.50;61.50;;;;;;5037734;28;20049;-41
2021/09/09 06:58:59;;;;;;;4.60;4.18;;;27.60;61.20;;;;;;5046867;28;20041;-64
2021/09/09 07:01:26;;;;;;;13.57;4.88;;;27.70;61.10;;;;;;5039659;28;20095;-52
2021/09/09 07:03:53;;;;;;;6.78;3.30;;;27.90;61.50;;;;;;5048323;28;20386;-47
2021/09/09 07:06:21;;;;;;;4.28;3.88;;;28.00;60.70;;;;;;5038974;28;20069;-53
2021/09/09 07:08:50;;;;;;;7.05;3.60;;;28.10;60.60;;;;;;5045798;28;20037;-49
2021/09/09 07:11:17;;;;;;;3.90;3.65;;;28.10;60.30;;;;;;5044895;28;20060;-51
2021/09/09 07:13:44;;;;;;;4.38;2.95;;;28.20;60.20;;;;;;5044416;28;20496;-48
2021/09/09 07:16:11;;;;;;;5.75;3.38;;;28.30;60.00;;;;;;5045642;28;20057;-46
2021/09/09 07:18:38;;;;;;;4.13;3.10;;;28.30;59.70;;;;;;5045346;28;20512;-49
2021/09/09 07:21:06;;;;;;;3.03;2.83;;;28.50;59.60;;;;;;5045878;28;20134;-47
2021/09/09 07:23:33;;;;;;;9.00;3.53;;;28.50;59.40;;;;;;5045766;28;20041;-50
2021/09/09 07:26:02;;;;;;;3.42;2.78;;;28.60;59.30;;;;;;5045989;28;20528;-47
2021/09/09 07:28:29;;;;;;;2.72;2.42;;;28.70;59.10;;;;;;5045872;28;20132;-46
2021/09/09 07:30:56;;;;;;;2.95;2.83;;;28.70;58.90;;;;;;5047755;28;20060;-48
2021/09/09 07:33:23;;;;;;;3.33;3.03;;;28.70;58.70;;;;;;5044244;28;20056;-50
2021/09/09 07:35:50;;;;;;;3.13;2.85;;;28.80;58.60;;;;;;5045275;28;20049;-49
2021/09/09 07:38:18;;;;;;;3.58;3.28;;;28.90;59.10;;;;;;5039290;28;20168;-47
2021/09/09 07:40:45;;;;;;;2.90;2.70;;;28.90;58.30;;;;;;5044425;28;20521;-54
2021/09/09 07:43:13;;;;;;;3.50;2.63;;;29.00;58.20;;;;;;5046954;28;20041;-50
2021/09/09 07:45:40;;;;;;;3.10;2.90;;;29.10;58.10;;;;;;5047016;28;20124;-54
2021/09/09 07:48:08;;;;;;;2.83;2.45;;;29.10;57.90;;;;;;5047229;28;20049;-49
2021/09/09 07:50:35;;;;;;;2.85;2.25;;;29.10;57.80;;;;;;5039904;28;20050;-51
2021/09/09 07:53:02;;;;;;;2.10;1.98;;;29.10;57.60;;;;;;5042522;28;20048;-50
2021/09/09 07:55:29;;;;;;;2.95;2.80;;;29.20;57.60;;;;;;5045748;28;20142;-51
2021/09/09 07:57:56;;;;;;;2.53;2.42;;;29.20;57.50;;;;;;5042381;28;20041;-49
2021/09/09 08:00:25;;;;;;;3.55;2.38;;;29.30;57.40;;;;;;5046423;28;20048;-53
2021/09/09 08:02:52;;;;;;;3.20;2.95;;;29.30;57.30;;;;;;5039820;28;20513;-50
2021/09/09 08:05:19;;;;;;;2.45;2.35;;;29.40;57.40;;;;;;5043068;28;20596;-48
2021/09/09 08:07:47;;;;;;;2.10;2.00;;;29.40;57.30;;;;;;5043281;28;20103;-49
2021/09/09 08:10:17;;;;;;;3.75;2.35;;;29.40;57.20;;;;;;5044926;28;20093;-48
2021/09/09 08:12:46;;;;;;;2.70;2.35;;;29.50;57.10;;;;;;5047269;28;20140;-49
2021/09/09 08:15:14;;;;;;;2.58;2.47;;;29.50;57.00;;;;;;5044177;28;20448;-50
2021/09/09 08:17:43;;;;;;;2.83;2.03;;;29.50;56.90;;;;;;5050894;28;20166;-46
2021/09/09 08:20:12;;;;;;;3.83;3.53;;;29.50;56.80;;;;;;5044896;28;20047;-55
2021/09/09 08:22:40;;;;;;;3.55;3.33;;;29.60;56.80;;;;;;5045365;28;20199;-54
2021/09/09 08:25:09;;;;;;;3.78;3.45;;;29.60;56.80;;;;;;5044950;28;20133;-55
2021/09/09 08:27:36;;;;;;;2.92;2.83;;;29.60;56.70;;;;;;5040633;28;20047;-54
2021/09/09 08:30:06;;;;;;;3.47;3.17;;;29.60;56.70;;;;;;5044907;28;20044;-49
2021/09/09 08:32:33;;;;;;;3.33;3.13;;;29.70;56.70;;;;;;5036972;28;20041;-53
2021/09/09 08:35:03;;;;;;;3.88;3.10;;;29.70;56.60;;;;;;5041943;28;20043;-50
2021/09/09 08:37:30;;;;;;;2.47;2.28;;;29.80;56.60;;;;;;5044228;28;20053;-47
2021/09/09 08:39:58;;;;;;;2.65;2.55;;;29.80;57.00;;;;;;5045616;28;20045;-58
2021/09/09 08:42:26;;;;;;;4.05;2.45;;;29.90;56.40;;;;;;5045771;28;20064;-57
2021/09/09 08:44:53;;;;;;;2.85;2.53;;;29.90;56.30;;;;;;5041887;28;20033;-57
2021/09/09 08:47:23;;;;;;;5.35;3.30;;;29.90;56.20;;;;;;5042194;28;23471;-58
2021/09/09 08:49:51;;;;;;;2.60;2.40;;;30.00;56.10;;;;;;5039572;28;20037;-55
2021/09/09 08:52:20;;;;;;;4.47;2.05;;;30.00;56.00;;;;;;5042138;28;20048;-56
2021/09/09 08:54:47;;;;;;;3.67;3.38;;;30.00;55.90;;;;;;5046263;28;20518;-57
2021/09/09 08:57:20;;;;;;;3.83;2.25;;;30.10;55.90;;;;;;5037510;28;20094;-57
2021/09/09 08:59:47;;;;;;;3.78;2.80;;;30.10;55.90;;;;;;5045134;28;20041;-58
2021/09/09 09:02:14;;;;;;;2.15;2.00;;;30.10;55.90;;;;;;5046551;28;20072;-58
2021/09/09 09:04:42;;;;;;;4.18;2.55;;;30.10;55.90;;;;;;5048240;28;20078;-55
2021/09/09 09:07:09;;;;;;;6.88;3.15;;;30.10;55.80;;;;;;5049244;28;20029;-57
2021/09/09 09:09:38;;;;;;;6.40;2.92;;;30.10;55.80;;;;;;5041588;28;20041;-59
2021/09/09 09:12:07;;;;;;;2.55;2.35;;;30.20;55.90;;;;;;5045833;28;20047;-59
2021/09/09 09:14:34;;;;;;;3.38;2.58;;;30.10;55.80;;;;;;5047355;28;20139;-59
2021/09/09 09:17:04;;;;;;;3.38;3.08;;;30.10;55.80;;;;;;5044712;28;20033;-58
2021/09/09 09:19:33;;;;;;;2.78;2.45;;;30.20;55.80;;;;;;5036940;28;20064;-58
2021/09/09 09:22:03;;;;;;;2.83;2.60;;;30.30;55.80;;;;;;5048957;28;20079;-58
2021/09/09 09:24:34;;;;;;;3.17;2.95;;;30.30;55.80;;;;;;5076575;28;20601;-58
2021/09/09 09:27:12;;;;;;;4.03;2.60;;;30.30;55.80;;;;;;5042573;28;20413;-59
2021/09/09 09:29:40;;;;;;;2.72;2.33;;;30.40;55.90;;;;;;5045958;28;20128;-59
2021/09/09 09:32:15;;;;;;;2.50;2.40;;;30.40;55.80;;;;;;5043058;28;20038;-58
2021/09/09 09:34:43;;;;;;;;;;;30.40;55.70;;;;;;5047263;28;20072;-58
2021/09/09 09:37:10;;;;;;;2.58;2.35;;;30.40;55.60;;;;;;5047617;28;20029;-60
2021/09/09 09:39:39;;;;;;;2.88;2.67;;;30.40;55.70;;;;;;5047361;28;20052;-59
2021/09/09 09:42:07;;;;;;;3.92;2.90;;;30.40;55.60;;;;;;5048480;28;20037;-57
2021/09/09 09:44:38;;;;;;;2.53;2.35;;;30.40;55.60;;;;;;5047540;28;20052;-59
2021/09/09 09:47:13;;;;;;;3.38;2.65;;;30.40;55.50;;;;;;5047957;28;20037;-57
2021/09/09 09:49:43;;;;;;;2.30;2.10;;;30.50;55.40;;;;;;5046905;28;20056;-58
2021/09/09 09:52:18;;;;;;;2.10;2.00;;;30.50;55.30;;;;;;5050849;28;20041;-58
2021/09/09 09:54:51;;;;;;;2.13;2.00;;;30.60;55.30;;;;;;5049317;28;20066;-58
2021/09/09 09:57:18;;;;;;;4.03;3.28;;;30.60;55.20;;;;;;5041859;28;20044;-58
2021/09/09 09:59:47;;;;;;;3.80;2.13;;;30.60;55.10;;;;;;5047641;28;20564;-60
2021/09/09 10:02:14;;;;;;;2.33;2.22;;;30.70;55.10;;;;;;5047569;28;20039;-59
2021/09/09 10:04:43;;;;;;;2.63;2.40;;;30.70;55.00;;;;;;5046010;28;20393;-59
2021/09/09 10:07:12;;;;;;;3.88;2.38;;;30.80;55.10;;;;;;5031905;28;20044;-59
2021/09/09 10:09:40;;;;;;;4.95;2.92;;;30.80;54.90;;;;;;5040014;28;20049;-51
2021/09/09 10:12:08;;;;;;;2.47;2.28;;;30.80;55.00;;;;;;5053425;28;20041;-67
2021/09/09 10:14:39;;;;;;;7.82;2.72;;;30.80;54.90;;;;;;5038227;28;20080;-52
2021/09/09 10:17:09;;;;;;;2.38;2.10;;;30.90;55.00;;;;;;5047935;28;20121;-52
2021/09/09 10:19:36;;;;;;;2.75;2.55;;;30.90;55.00;;;;;;5049042;28;20132;-46
2021/09/09 10:22:12;;;;;;;2.80;2.40;;;30.90;55.00;;;;;;5046765;28;20037;-47
2021/09/09 10:24:50;;;;;;;2.80;2.65;;;30.90;55.10;;;;;;5030890;28;20045;-67
2021/09/09 10:27:43;;;;;;;1.85;1.75;;;30.90;55.00;;;;;;5007573;28;20156;-71
2021/09/09 10:30:30;;;;;;;3.10;2.50;;;30.90;54.90;;;;;;4989729;28;20478;-70
2021/09/09 10:33:28;;;;;;;2.15;2.05;;;30.90;55.00;;;;;;5010554;28;20540;-68
2021/09/09 10:36:44;;;;;;;1.25;1.25;;;30.90;55.00;;;;;;5010868;28;20061;-64
2021/09/09 10:39:56;;;;;;;2.53;2.13;;;30.90;55.00;;;;;;5010533;28;20521;-66
2021/09/09 10:42:36;;;;;;;6.13;2.45;;;30.80;55.00;;;;;;5014699;28;20065;-49
2021/09/09 10:45:40;;;;;;;4.97;1.67;;;30.80;55.20;;;;;;5004159;28;20096;-50
2021/09/09 10:48:22;;;;;;;1.90;1.58;;;30.80;55.30;;;;;;4961967;28;20133;-51
2021/09/09 10:51:12;;;;;;;2.33;2.17;;;30.80;55.50;;;;;;5008107;28;20544;-48
2021/09/09 10:54:15;;;;;;;4.20;1.85;;;30.80;55.60;;;;;;5009015;28;20454;-48
2021/09/09 10:56:47;;;;;;;3.47;1.58;;;30.80;55.50;;;;;;5005805;28;20045;-53
2021/09/09 10:59:19;;;;;;;3.03;1.70;;;30.80;55.40;;;;;;5033789;28;20057;-50
2021/09/09 11:01:48;;;;;;;5.13;1.70;;;30.80;55.20;;;;;;5059093;28;20037;-51
2021/09/09 11:04:33;;;;;;;7.80;2.83;;;30.80;55.60;;;;;;5040325;28;20060;-52
2021/09/09 11:07:22;;;;;;;9.60;1.90;;;30.80;55.60;;;;;;5051065;28;20049;-47
2021/09/09 11:10:11;;;;;;;14.57;3.20;;;30.80;56.10;;;;;;5046423;28;20167;-52
2021/09/09 11:12:58;;;;;;;3.45;1.58;;;30.80;56.20;;;;;;5043104;28;20102;-45
2021/09/09 11:15:33;;;;;;;7.43;2.75;;;30.70;55.90;;;;;;5035881;28;20084;-52
2021/09/09 11:18:07;;;;;;;5.47;1.88;;;30.80;55.90;;;;;;5034455;28;20042;-49
2021/09/09 11:20:44;;;;;;;5.38;1.90;;;30.70;55.80;;;;;;5033436;28;20536;-52
2021/09/09 11:23:15;;;;;;;6.80;1.95;;;30.80;55.80;;;;;;5031607;28;20041;-52
2021/09/09 11:25:47;;;;;;;7.60;1.05;;;30.70;55.60;;;;;;5032077;28;20083;-54
2021/09/09 11:28:19;;;;;;;3.00;2.35;;;30.70;55.40;;;;;;5030459;28;20041;-53
2021/09/09 11:31:08;;;;;;;2.15;0.88;;;30.70;55.20;;;;;;5045553;28;20048;-50
2021/09/09 11:33:55;;;;;;;3.70;1.70;;;30.70;55.00;;;;;;5029564;28;20050;-49
2021/09/09 11:36:32;;;;;;;6.97;1.52;;;30.70;55.10;;;;;;5033445;28;20833;-50
2021/09/09 11:39:12;;;;;;;3.75;1.02;;;30.70;55.00;;;;;;5031354;28;20077;-52
2021/09/09 11:41:41;;;;;;;2.22;1.10;;;30.70;55.00;;;;;;5031858;28;20041;-52
2021/09/09 11:44:26;;;;;;;3.38;1.27;;;30.70;54.60;;;;;;5029806;28;20128;-52
2021/09/09 11:46:54;;;;;;;7.88;1.45;;;30.70;54.50;;;;;;5031010;28;20052;-48
2021/09/09 11:49:48;;;;;;;0.93;0.93;;;30.70;54.40;;;;;;4998705;28;20057;-50
2021/09/09 11:52:17;;;;;;;2.22;0.50;;;30.70;54.30;;;;;;5001157;28;20042;-46
2021/09/09 11:54:47;;;;;;;1.67;1.00;;;30.70;54.30;;;;;;4989719;28;20058;-49
2021/09/09 11:57:20;;;;;;;4.32;0.60;;;30.70;54.20;;;;;;4985408;28;20141;-53
2021/09/09 11:59:50;;;;;;;1.33;0.93;;;30.70;54.10;;;;;;4992189;28;20388;-54
2021/09/09 12:02:46;;;;;;;2.10;0.80;;;30.70;54.60;;;;;;4957999;28;20065;-54
2021/09/09 12:05:39;;;;;;;0.63;0.63;;;30.70;54.10;;;;;;4957860;28;20095;-53
2021/09/09 12:08:11;;;;;;;2.50;0.90;;;30.70;53.80;;;;;;4957689;28;20047;-50
2021/09/09 12:10:44;;;;;;;2.42;0.82;;;30.60;53.60;;;;;;4959876;28;20078;-51
2021/09/09 12:13:33;;;;;;;2.80;0.40;;;30.70;53.50;;;;;;4961955;28;20047;-50
2021/09/09 12:16:14;;;;;;;1.70;0.95;;;30.70;53.40;;;;;;4960260;28;20230;-49
2021/09/09 12:18:41;;;;;;;0.45;0.35;;;30.70;53.40;;;;;;4962000;28;20050;-49
2021/09/09 12:21:10;;;;;;;0.50;0.20;;;30.60;53.40;;;;;;4957745;28;20610;-48
2021/09/09 12:23:39;;;;;;;1.17;0.50;;;30.60;53.20;;;;;;4956629;28;20475;-50
2021/09/09 12:26:17;;;;;;;1.23;0.30;;;30.70;53.30;;;;;;4968341;28;20058;-50
2021/09/09 12:28:47;;;;;;;4.00;0.20;;;30.70;53.30;;;;;;4989620;28;20100;-48
2021/09/09 12:31:14;;;;;;;0.30;0.30;;;30.60;53.10;;;;;;4964196;28;20608;-50
2021/09/09 12:33:53;;;;;;;1.30;0.25;;;30.60;53.80;;;;;;5018400;28;20069;-46
2021/09/09 12:36:20;;;;;;;2.10;0.40;;;30.60;53.20;;;;;;5013328;28;20053;-47
2021/09/09 12:38:59;;;;;;;0.32;0.30;;;30.60;53.20;;;;;;5012866;28;20189;-49
2021/09/09 12:41:29;;;;;;;0.68;0.25;;;30.70;53.30;;;;;;5013114;28;20383;-49
2021/09/09 12:44:19;;;;;;;0.55;0.20;;;30.60;53.40;;;;;;4937300;29;20040;-50
2021/09/09 12:47:16;;;;;;;1.58;0.20;;;30.60;53.50;;;;;;4944452;29;20050;-49
2021/09/09 12:50:34;;;;;;;0.25;0.10;;;30.60;53.50;;;;;;4935362;29;20048;-50
2021/09/09 12:53:16;;;;;;;1.05;0.22;;;30.70;53.60;;;;;;4948347;29;20045;-47
2021/09/09 12:56:05;;;;;;;1.17;0.10;;;30.60;53.60;;;;;;4939100;28;20051;-52
2021/09/09 12:58:35;;;;;;;0.50;0.30;;;30.60;53.60;;;;;;4936376;29;20059;-50
2021/09/09 13:01:05;;;;;;;0.30;0.30;;;30.60;53.40;;;;;;4935156;29;20841;-50
2021/09/09 13:03:34;;;;;;;0.28;0.10;;;30.60;53.30;;;;;;4939465;29;20051;-50